Time;durP1;ratioP1;P1;durP2;ratioP2;P2;SDS_P1;SDS_P2;PMS_P1;PMS_P2;Temp;Humidity;BMP_temperature;BMP_pressure;BME280_temperature;BME280_humidity;BME280_pressure;Samples;Min_cycle;Max_cycle;Signal;HPM_P1;HPM_P2
2022/08/26 00:00:04;;;;;;;46.67;37.35;;;;;;;;;;5016557;28;20445;-79
2022/08/26 00:02:30;;;;;;;44.53;37.20;;;;;;;;;;5016498;28;20045;-78
2022/08/26 00:04:56;;;;;;;54.30;39.83;;;;;;;;;;5015979;28;20522;-78
2022/08/26 00:07:22;;;;;;;46.75;36.90;;;;;;;;;;5016180;28;20571;-77
2022/08/26 00:09:48;;;;;;;54.42;38.88;;;;;;;;;;5013850;28;20473;-68
2022/08/26 00:12:14;;;;;;;50.85;40.63;;;;;;;;;;5011245;28;20060;-69
2022/08/26 00:14:40;;;;;;;50.78;38.22;;;;;;;;;;4993826;28;20137;-69
2022/08/26 00:17:06;;;;;;;49.58;37.92;;;;;;;;;;5011310;28;20054;-68
2022/08/26 00:19:34;;;;;;;46.80;37.47;;;;;;;;;;5011553;28;20092;-69
2022/08/26 00:22:00;;;;;;;44.97;35.30;;;;;;;;;;5011574;28;20085;-68
2022/08/26 00:24:26;;;;;;;45.88;33.63;;;;;;;;;;5011520;28;20149;-68
2022/08/26 00:26:52;;;;;;;42.33;31.83;;;;;;;;;;5011451;28;20115;-68
2022/08/26 00:29:19;;;;;;;47.47;32.33;;;;;;;;;;5009490;28;20100;-68
2022/08/26 00:31:45;;;;;;;41.45;30.35;;;;;;;;;;5030020;28;20096;-68
2022/08/26 00:34:11;;;;;;;40.38;28.45;;;;;;;;;;5030503;28;20481;-67
2022/08/26 00:36:38;;;;;;;40.25;28.15;;;;;;;;;;5030645;28;20138;-68
2022/08/26 00:39:06;;;;;;;37.25;28.58;;;;;;;;;;5030856;28;20473;-67
2022/08/26 00:41:32;;;;;;;42.10;26.85;;;;;;;;;;5030810;28;20119;-68
2022/08/26 00:43:59;;;;;;;42.17;26.85;;;;;;;;;;5030630;28;20053;-68
2022/08/26 00:46:28;;;;;;;40.15;27.30;;;;;;;;;;5030579;28;20041;-71
2022/08/26 00:49:11;;;;;;;43.03;26.50;;;;;;;;;;5030624;28;20081;-68
2022/08/26 00:51:40;;;;;;;44.25;26.45;;;;;;;;;;5030652;28;20049;-67
2022/08/26 00:54:07;;;;;;;44.30;27.10;;;;;;;;;;5030283;28;20124;-67
2022/08/26 00:56:36;;;;;;;43.58;27.60;;;;;;;;;;5029869;28;20064;-69
2022/08/26 00:59:05;;;;;;;42.03;27.52;;;;;;;;;;5030029;28;20498;-68
2022/08/26 01:01:31;;;;;;;42.70;25.83;;;;;;;;;;5012054;28;20100;-68
2022/08/26 01:03:58;;;;;;;50.35;29.05;;;;;;;;;;5030191;28;20057;-70
2022/08/26 01:06:25;;;;;;;48.65;28.25;;;;;;;;;;5011942;28;20052;-70
2022/08/26 01:08:51;;;;;;;45.10;30.58;;;;;;;;;;5029552;28;20053;-68
2022/08/26 01:11:17;;;;;;;46.42;28.30;;;;;;;;;;5029846;28;20454;-69
2022/08/26 01:13:43;;;;;;;44.70;27.48;;;;;;;;;;5029659;28;20045;-69
2022/08/26 01:16:12;;;;;;;43.70;28.05;;;;;;;;;;5029379;28;20450;-67
2022/08/26 01:18:39;;;;;;;48.05;28.25;;;;;;;;;;5029788;28;20374;-65
2022/08/26 01:21:20;;;;;;;42.75;27.50;;;;;;;;;;5029529;28;20048;-68
2022/08/26 01:23:48;;;;;;;42.45;28.42;;;;;;;;;;5029557;28;20103;-68
2022/08/26 01:26:22;;;;;;;42.13;28.88;;;;;;;;;;5029130;28;20492;-73
2022/08/26 01:28:49;;;;;;;48.58;28.58;;;;;;;;;;5029607;28;20088;-67
2022/08/26 01:31:18;;;;;;;47.50;28.83;;;;;;;;;;5029570;28;20400;-67
2022/08/26 01:33:49;;;;;;;51.55;29.00;;;;;;;;;;5029346;28;20419;-66
2022/08/26 01:36:16;;;;;;;46.95;29.50;;;;;;;;;;5029042;28;20110;-67
2022/08/26 01:38:42;;;;;;;46.80;29.25;;;;;;;;;;5029334;28;20140;-68
2022/08/26 01:41:09;;;;;;;48.63;28.15;;;;;;;;;;5029129;28;20439;-66
2022/08/26 01:43:37;;;;;;;46.20;27.25;;;;;;;;;;5028994;28;20042;-65
2022/08/26 01:46:04;;;;;;;45.35;27.95;;;;;;;;;;5028614;28;20045;-68
2022/08/26 01:48:31;;;;;;;45.95;28.55;;;;;;;;;;5010966;28;20094;-68
2022/08/26 01:50:58;;;;;;;48.35;28.80;;;;;;;;;;5029204;28;20065;-69
2022/08/26 01:53:25;;;;;;;49.53;29.52;;;;;;;;;;5028608;28;20488;-68
2022/08/26 01:55:53;;;;;;;52.50;28.92;;;;;;;;;;5028678;28;20065;-67
2022/08/26 01:58:25;;;;;;;47.70;28.27;;;;;;;;;;5028988;28;20330;-68
2022/08/26 02:00:52;;;;;;;52.55;28.63;;;;;;;;;;5028466;28;20046;-67
2022/08/26 02:03:21;;;;;;;49.92;29.15;;;;;;;;;;5028733;28;20080;-67
2022/08/26 02:05:52;;;;;;;50.83;29.75;;;;;;;;;;5028408;28;20061;-67
2022/08/26 02:08:19;;;;;;;51.55;29.10;;;;;;;;;;5029424;28;20389;-67
2022/08/26 02:10:46;;;;;;;51.13;28.50;;;;;;;;;;5011897;28;20418;-67
2022/08/26 02:13:12;;;;;;;49.17;28.45;;;;;;;;;;5029165;28;20120;-67
2022/08/26 02:15:40;;;;;;;54.55;29.20;;;;;;;;;;5029417;28;20139;-67
2022/08/26 02:18:08;;;;;;;46.83;28.13;;;;;;;;;;5029460;28;20061;-66
2022/08/26 02:20:34;;;;;;;53.92;29.95;;;;;;;;;;5028953;28;20132;-68
2022/08/26 02:23:00;;;;;;;55.45;28.98;;;;;;;;;;5029503;28;20111;-67
2022/08/26 02:25:26;;;;;;;;;;;;;;;;;;5029801;28;20202;-67
2022/08/26 02:27:53;;;;;;;46.97;27.98;;;;;;;;;;5029064;28;20353;-67
2022/08/26 02:30:30;;;;;;;46.45;28.05;;;;;;;;;;5011334;28;20077;-67
2022/08/26 02:33:02;;;;;;;47.50;29.25;;;;;;;;;;5010978;28;20077;-68
2022/08/26 02:35:29;;;;;;;53.47;30.50;;;;;;;;;;5011638;28;20394;-65
2022/08/26 02:37:55;;;;;;;54.80;30.25;;;;;;;;;;5028978;28;20092;-68
2022/08/26 02:40:24;;;;;;;49.53;30.17;;;;;;;;;;5010846;28;20061;-69
2022/08/26 02:42:50;;;;;;;53.22;28.65;;;;;;;;;;5029089;28;20053;-68
2022/08/26 02:45:17;;;;;;;49.70;27.95;;;;;;;;;;5028872;28;20119;-66
2022/08/26 02:47:43;;;;;;;55.08;28.75;;;;;;;;;;5028665;28;20049;-66
2022/08/26 02:50:11;;;;;;;48.88;27.98;;;;;;;;;;5028993;28;20045;-67
2022/08/26 02:52:37;;;;;;;48.95;27.67;;;;;;;;;;5028694;28;20049;-68
2022/08/26 02:55:03;;;;;;;;;;;;;;;;;;5029532;28;20137;-68
2022/08/26 02:57:29;;;;;;;50.67;25.63;;;;;;;;;;5032874;28;20298;-68
2022/08/26 02:59:56;;;;;;;55.42;27.02;;;;;;;;;;5032742;28;20424;-67
2022/08/26 03:02:22;;;;;;;52.00;27.00;;;;;;;;;;5033018;28;20474;-66
2022/08/26 03:04:49;;;;;;;47.42;26.73;;;;;;;;;;5014886;28;20049;-67
2022/08/26 03:07:15;;;;;;;51.38;26.13;;;;;;;;;;5032960;28;20049;-68
2022/08/26 03:09:41;;;;;;;46.55;26.73;;;;;;;;;;5014722;28;20063;-71
2022/08/26 03:12:07;;;;;;;;;;;;;;;;;;5033044;28;20069;-69
2022/08/26 03:14:37;;;;;;;50.45;25.60;;;;;;;;;;5032705;28;19984;-69
2022/08/26 03:17:03;;;;;;;47.38;25.00;;;;;;;;;;5032659;28;20129;-71
2022/08/26 03:19:30;;;;;;;45.28;24.52;;;;;;;;;;5014325;28;20072;-71
2022/08/26 03:21:57;;;;;;;49.25;24.25;;;;;;;;;;5032613;28;20100;-68
2022/08/26 03:24:24;;;;;;;44.38;23.65;;;;;;;;;;5014703;28;20421;-82
2022/08/26 03:26:50;;;;;;;40.38;21.95;;;;;;;;;;5032302;28;20144;-70
2022/08/26 03:32:02;;;;;;;43.13;23.40;;;;;;;;;;5032376;28;20049;-71
2022/08/26 03:34:28;;;;;;;42.05;22.08;;;;;;;;;;5032612;28;20042;-76
2022/08/26 03:36:54;;;;;;;;;;;;;;;;;;5032683;28;20068;-73
2022/08/26 03:39:20;;;;;;;45.60;22.90;;;;;;;;;;5032003;28;19924;-71
2022/08/26 03:41:46;;;;;;;;;;;;;;;;;;5014447;28;20094;-74
2022/08/26 03:44:13;;;;;;;38.75;20.45;;;;;;;;;;5031768;28;20019;-72
2022/08/26 03:46:40;;;;;;;39.60;20.80;;;;;;;;;;5014113;28;20094;-70
2022/08/26 03:49:06;;;;;;;38.28;19.65;;;;;;;;;;5032694;28;20049;-68
2022/08/26 03:51:33;;;;;;;46.03;20.70;;;;;;;;;;5031913;28;20050;-71
2022/08/26 03:54:01;;;;;;;39.25;19.90;;;;;;;;;;5032629;28;20053;-71
2022/08/26 03:56:27;;;;;;;43.20;19.38;;;;;;;;;;5031889;28;20057;-68
2022/08/26 03:58:54;;;;;;;38.67;19.38;;;;;;;;;;5031748;28;20045;-69
2022/08/26 04:01:20;;;;;;;35.85;16.92;;;;;;;;;;5031063;28;20462;-68
2022/08/26 04:03:59;;;;;;;32.05;16.65;;;;;;;;;;5031458;28;20064;-70
2022/08/26 04:06:26;;;;;;;36.28;17.00;;;;;;;;;;5031840;28;20061;-70
2022/08/26 04:08:57;;;;;;;33.55;16.83;;;;;;;;;;5030802;28;20045;-69
2022/08/26 04:11:24;;;;;;;33.22;17.20;;;;;;;;;;5031336;28;20101;-69
2022/08/26 04:13:50;;;;;;;35.40;18.40;;;;;;;;;;5031363;28;20067;-70
2022/08/26 04:16:16;;;;;;;35.67;18.90;;;;;;;;;;5031442;28;20065;-71
2022/08/26 04:18:43;;;;;;;39.78;19.35;;;;;;;;;;5031036;28;20049;-74
2022/08/26 04:21:10;;;;;;;36.60;19.15;;;;;;;;;;5031388;28;20049;-76
2022/08/26 04:23:37;;;;;;;35.13;19.23;;;;;;;;;;5013176;28;20111;-69
2022/08/26 04:26:03;;;;;;;29.17;18.35;;;;;;;;;;5031254;28;20472;-69
2022/08/26 04:28:29;;;;;;;37.95;19.25;;;;;;;;;;5030968;28;20049;-70
2022/08/26 04:30:56;;;;;;;34.40;17.83;;;;;;;;;;5029917;28;20187;-72
2022/08/26 04:33:22;;;;;;;33.35;19.02;;;;;;;;;;5030504;28;20050;-70
2022/08/26 04:35:48;;;;;;;34.53;17.42;;;;;;;;;;5012386;28;20109;-69
2022/08/26 04:38:15;;;;;;;38.45;18.75;;;;;;;;;;5030436;28;20143;-73
2022/08/26 04:40:45;;;;;;;37.55;18.25;;;;;;;;;;5030500;28;20049;-87
2022/08/26 04:43:14;;;;;;;34.20;19.05;;;;;;;;;;5030083;28;20041;-68
2022/08/26 04:45:40;;;;;;;;;;;;;;;;;;5030380;28;20049;-72
2022/08/26 04:48:07;;;;;;;36.10;17.90;;;;;;;;;;5011452;28;19973;-70
2022/08/26 04:50:33;;;;;;;38.35;19.55;;;;;;;;;;5029879;28;20053;-79
2022/08/26 04:52:59;;;;;;;;;;;;;;;;;;5029831;28;20477;-77
2022/08/26 04:55:26;;;;;;;37.60;20.27;;;;;;;;;;5029505;28;19921;-72
2022/08/26 04:57:52;;;;;;;38.97;19.55;;;;;;;;;;5028905;28;20068;-73
2022/08/26 05:00:19;;;;;;;36.72;20.40;;;;;;;;;;5028796;28;20094;-74
2022/08/26 05:02:45;;;;;;;37.72;18.88;;;;;;;;;;5027747;28;20057;-73
2022/08/26 05:05:12;;;;;;;38.90;19.10;;;;;;;;;;5010539;28;20049;-73
2022/08/26 05:07:39;;;;;;;35.35;16.98;;;;;;;;;;5010934;28;20057;-73
2022/08/26 05:10:08;;;;;;;38.72;19.33;;;;;;;;;;5029005;28;20148;-75
2022/08/26 05:12:34;;;;;;;37.95;18.05;;;;;;;;;;5029526;28;20367;-79
2022/08/26 05:15:00;;;;;;;;;;;;;;;;;;5011092;28;20171;-80
2022/08/26 05:17:27;;;;;;;37.70;16.77;;;;;;;;;;5027973;28;20024;-80
2022/08/26 05:19:54;;;;;;;36.55;17.90;;;;;;;;;;5027039;28;20508;-79
2022/08/26 05:22:20;;;;;;;38.45;17.50;;;;;;;;;;5029181;28;20049;-79
2022/08/26 05:24:48;;;;;;;;;;;;;;;;;;5029442;28;20183;-81
2022/08/26 05:27:15;;;;;;;37.67;17.27;;;;;;;;;;5029033;28;19921;-71
2022/08/26 05:29:41;;;;;;;34.70;17.35;;;;;;;;;;5028476;28;20045;-70
2022/08/26 05:32:07;;;;;;;37.97;16.13;;;;;;;;;;5028934;28;20148;-70
2022/08/26 05:34:33;;;;;;;41.00;17.13;;;;;;;;;;5028468;28;20049;-71
2022/08/26 05:36:59;;;;;;;;;;;;;;;;;;5028778;28;20053;-71
2022/08/26 05:39:25;;;;;;;32.40;15.50;;;;;;;;;;5028216;28;20074;-70
2022/08/26 05:41:51;;;;;;;;;;;;;;;;;;5028541;28;20124;-71
2022/08/26 05:44:19;;;;;;;34.85;16.35;;;;;;;;;;5028442;28;19979;-72
2022/08/26 05:46:45;;;;;;;32.78;14.73;;;;;;;;;;5028452;28;20041;-71
2022/08/26 05:49:11;;;;;;;;;;;;;;;;;;5028279;28;20061;-89
2022/08/26 05:51:38;;;;;;;33.47;13.90;;;;;;;;;;5028149;28;19944;-79
2022/08/26 05:54:07;;;;;;;29.85;14.20;;;;;;;;;;5027950;28;20140;-83
2022/08/26 05:56:33;;;;;;;38.28;14.10;;;;;;;;;;5027557;28;20105;-86
2022/08/26 05:59:01;;;;;;;;;;;;;;;;;;5028345;28;20056;-79
2022/08/26 06:01:27;;;;;;;33.33;13.88;;;;;;;;;;5027304;28;20015;-83
2022/08/26 06:03:58;;;;;;;27.80;12.95;;;;;;;;;;5027431;28;20501;-77
2022/08/26 06:06:26;;;;;;;30.40;12.90;;;;;;;;;;5028081;28;20104;-82
2022/08/26 06:08:56;;;;;;;28.15;12.18;;;;;;;;;;5027420;28;20396;-79
2022/08/26 06:11:25;;;;;;;28.73;12.65;;;;;;;;;;5010656;28;20053;-77
2022/08/26 06:13:52;;;;;;;30.17;13.52;;;;;;;;;;5027743;28;20117;-78
2022/08/26 06:16:19;;;;;;;27.70;12.02;;;;;;;;;;5027580;28;20170;-78
2022/08/26 06:18:46;;;;;;;28.27;11.52;;;;;;;;;;5028049;28;20096;-80
2022/08/26 06:21:17;;;;;;;25.60;11.73;;;;;;;;;;5026905;28;20374;-81
2022/08/26 06:26:30;;;;;;;24.95;10.77;;;;;;;;;;5013100;28;20194;-80
2022/08/26 06:28:57;;;;;;;31.13;12.25;;;;;;;;;;5027838;28;20069;-78
2022/08/26 06:31:24;;;;;;;29.83;11.05;;;;;;;;;;5027540;28;20136;-80
2022/08/26 06:33:50;;;;;;;28.20;11.73;;;;;;;;;;5009597;28;20048;-78
2022/08/26 06:36:18;;;;;;;26.52;10.65;;;;;;;;;;5028398;28;20466;-81
2022/08/26 06:38:45;;;;;;;36.58;10.93;;;;;;;;;;5010266;28;20123;-80
2022/08/26 06:41:11;;;;;;;26.58;11.32;;;;;;;;;;5027952;28;20374;-79
2022/08/26 06:43:37;;;;;;;;;;;;;;;;;;5027877;28;20049;-84
2022/08/26 06:46:05;;;;;;;29.37;12.03;;;;;;;;;;5027621;28;19936;-80
2022/08/26 06:48:31;;;;;;;33.08;10.63;;;;;;;;;;5027138;28;20811;-71
2022/08/26 06:51:01;;;;;;;26.17;10.68;;;;;;;;;;5027584;28;20363;-80
2022/08/26 06:53:30;;;;;;;27.20;11.38;;;;;;;;;;5027054;28;20137;-84
2022/08/26 06:55:56;;;;;;;;;;;;;;;;;;5027618;28;20046;-82
2022/08/26 06:58:22;;;;;;;27.60;11.52;;;;;;;;;;5027234;28;19948;-79
2022/08/26 07:00:48;;;;;;;;;;;;;;;;;;5027512;28;20072;-77
2022/08/26 07:03:14;;;;;;;27.67;9.93;;;;;;;;;;5027348;28;20337;-85
2022/08/26 07:05:40;;;;;;;;;;;;;;;;;;5027727;28;20053;-80
2022/08/26 07:08:06;;;;;;;28.00;9.27;;;;;;;;;;5027307;28;19988;-77
2022/08/26 07:10:32;;;;;;;24.38;9.75;;;;;;;;;;5026485;28;20096;-76
2022/08/26 07:12:59;;;;;;;;;;;;;;;;;;5026806;28;20497;-79
2022/08/26 07:15:25;;;;;;;27.48;8.13;;;;;;;;;;5027408;28;19928;-80
2022/08/26 07:17:51;;;;;;;26.20;8.07;;;;;;;;;;5027537;28;20060;-75
2022/08/26 07:20:17;;;;;;;;;;;;;;;;;;5027356;28;20133;-79
2022/08/26 07:22:43;;;;;;;29.17;8.07;;;;;;;;;;5027547;28;20434;-77
2022/08/26 07:25:10;;;;;;;;;;;;;;;;;;5027363;28;20163;-81
2022/08/26 07:27:36;;;;;;;25.13;7.70;;;;;;;;;;5027210;28;19921;-82
2022/08/26 07:30:05;;;;;;;22.63;6.95;;;;;;;;;;5027103;28;20225;-80
2022/08/26 07:32:31;;;;;;;24.98;7.50;;;;;;;;;;5008624;28;20549;-76
2022/08/26 07:35:00;;;;;;;22.30;7.28;;;;;;;;;;5026845;28;20110;-80
2022/08/26 07:37:26;;;;;;;;;;;;;;;;;;5028186;28;20112;-75
2022/08/26 07:39:53;;;;;;;19.33;7.28;;;;;;;;;;5027023;28;20350;-77
2022/08/26 07:42:19;;;;;;;;;;;;;;;;;;5027509;28;20056;-82
2022/08/26 07:44:45;;;;;;;22.10;7.23;;;;;;;;;;5031463;28;19931;-80
2022/08/26 07:47:15;;;;;;;23.58;7.00;;;;;;;;;;5030893;28;20049;-77
2022/08/26 07:49:41;;;;;;;21.25;6.93;;;;;;;;;;5031912;28;20111;-76
2022/08/26 07:52:08;;;;;;;22.50;7.80;;;;;;;;;;5031524;28;20052;-82
2022/08/26 07:54:36;;;;;;;27.67;6.50;;;;;;;;;;5013275;28;20052;-80
2022/08/26 07:57:03;;;;;;;22.23;6.68;;;;;;;;;;5031469;28;20144;-80
2022/08/26 07:59:29;;;;;;;22.02;5.90;;;;;;;;;;5031127;28;20080;-79
2022/08/26 08:01:57;;;;;;;;;;;;;;;;;;5031935;28;20115;-90
2022/08/26 08:04:23;;;;;;;19.42;4.63;;;;;;;;;;5031498;28;20343;-78
2022/08/26 08:06:49;;;;;;;;;;;;;;;;;;5013478;28;20128;-78
2022/08/26 08:09:16;;;;;;;16.80;5.00;;;;;;;;;;5030723;28;19979;-79
2022/08/26 08:11:43;;;;;;;14.85;4.32;;;;;;;;;;5030475;28;20053;-74
2022/08/26 08:14:09;;;;;;;15.27;4.30;;;;;;;;;;5030412;28;20064;-76
2022/08/26 08:16:36;;;;;;;17.13;4.55;;;;;;;;;;5029805;28;20138;-73
2022/08/26 08:19:02;;;;;;;21.17;4.50;;;;;;;;;;5029926;28;20369;-79
2022/08/26 08:21:29;;;;;;;;;;;;;;;;;;5013301;28;20191;-76
2022/08/26 08:23:55;;;;;;;19.58;4.35;;;;;;;;;;5012472;28;19931;-86
2022/08/26 08:26:22;;;;;;;19.17;4.88;;;;;;;;;;5030528;28;20389;-91
2022/08/26 08:28:55;;;;;;;18.70;4.00;;;;;;;;;;5031078;28;20113;-82
2022/08/26 08:31:23;;;;;;;18.60;3.92;;;;;;;;;;5029936;28;20071;-82
2022/08/26 08:33:49;;;;;;;15.60;3.95;;;;;;;;;;4996449;28;20406;-75
2022/08/26 08:36:15;;;;;;;17.23;3.92;;;;;;;;;;5032268;28;20152;-79
2022/08/26 08:38:42;;;;;;;15.48;3.85;;;;;;;;;;5013421;28;20128;-84
2022/08/26 08:41:27;;;;;;;16.10;3.72;;;;;;;;;;5030271;28;20136;-90
2022/08/26 08:43:55;;;;;;;13.45;3.67;;;;;;;;;;5031630;28;20489;-80
2022/08/26 08:46:22;;;;;;;23.45;3.78;;;;;;;;;;5012386;28;20087;-83
2022/08/26 08:48:51;;;;;;;15.20;3.75;;;;;;;;;;5029811;28;20045;-79
2022/08/26 08:51:26;;;;;;;17.05;3.53;;;;;;;;;;4994576;28;20498;-78
2022/08/26 08:53:53;;;;;;;15.05;4.28;;;;;;;;;;5029048;28;20132;-82
2022/08/26 08:56:22;;;;;;;15.65;3.80;;;;;;;;;;5011277;28;20128;-79
2022/08/26 08:58:57;;;;;;;19.55;4.15;;;;;;;;;;5029147;28;20520;-81
2022/08/26 09:01:23;;;;;;;16.00;4.00;;;;;;;;;;4994864;28;20444;-81
2022/08/26 09:03:49;;;;;;;;;;;;;;;;;;5012022;28;20133;-77
2022/08/26 09:06:19;;;;;;;19.67;3.83;;;;;;;;;;5029580;28;19976;-76
2022/08/26 09:08:46;;;;;;;15.85;3.40;;;;;;;;;;5030584;28;20118;-77
2022/08/26 09:11:13;;;;;;;16.10;4.20;;;;;;;;;;5012922;28;20195;-78
2022/08/26 09:13:44;;;;;;;21.38;4.13;;;;;;;;;;5029251;28;20048;-73
2022/08/26 09:16:16;;;;;;;19.80;4.00;;;;;;;;;;5029675;28;20136;-79
2022/08/26 09:18:55;;;;;;;15.63;3.92;;;;;;;;;;4996573;28;20064;-76
2022/08/26 09:21:22;;;;;;;16.35;3.60;;;;;;;;;;5029242;28;20530;-78
2022/08/26 09:23:49;;;;;;;17.10;3.53;;;;;;;;;;5029459;28;20069;-81
2022/08/26 09:26:18;;;;;;;17.20;3.80;;;;;;;;;;5028942;28;20077;-80
2022/08/26 09:28:46;;;;;;;15.38;3.72;;;;;;;;;;5028816;28;20118;-74
2022/08/26 09:31:21;;;;;;;20.65;4.40;;;;;;;;;;5028893;28;20137;-79
2022/08/26 09:33:47;;;;;;;18.85;4.70;;;;;;;;;;5028857;28;20048;-71
2022/08/26 09:36:38;;;;;;;15.15;3.90;;;;;;;;;;5010445;28;20080;-76
2022/08/26 09:39:05;;;;;;;14.95;4.57;;;;;;;;;;5028812;28;20042;-78
2022/08/26 09:41:32;;;;;;;13.25;3.85;;;;;;;;;;5028484;28;20045;-73
2022/08/26 09:44:13;;;;;;;17.00;3.70;;;;;;;;;;5028430;28;20178;-74
2022/08/26 09:46:41;;;;;;;19.17;4.63;;;;;;;;;;5028327;28;20101;-77
2022/08/26 09:49:19;;;;;;;14.52;3.67;;;;;;;;;;5010449;28;20049;-75
2022/08/26 09:51:46;;;;;;;19.52;4.10;;;;;;;;;;5027911;28;20064;-81
2022/08/26 09:54:12;;;;;;;;;;;;;;;;;;5029083;28;20355;-79
2022/08/26 09:56:38;;;;;;;27.45;4.05;;;;;;;;;;5028570;28;19932;-75
2022/08/26 09:59:08;;;;;;;19.10;3.75;;;;;;;;;;5028229;28;20060;-82
2022/08/26 10:01:41;;;;;;;18.40;3.70;;;;;;;;;;5027758;28;20064;-83
2022/08/26 10:04:12;;;;;;;18.77;4.05;;;;;;;;;;5028473;28;20140;-85
2022/08/26 10:06:43;;;;;;;18.20;4.03;;;;;;;;;;5027484;28;20049;-80
2022/08/26 10:09:12;;;;;;;14.40;3.60;;;;;;;;;;5028205;28;20045;-83
2022/08/26 10:11:52;;;;;;;18.92;4.15;;;;;;;;;;5028654;28;20045;-86
2022/08/26 10:14:23;;;;;;;16.40;3.83;;;;;;;;;;5026990;28;20049;-81
2022/08/26 10:16:58;;;;;;;21.20;4.20;;;;;;;;;;5027644;28;20069;-80
2022/08/26 10:19:26;;;;;;;17.58;3.75;;;;;;;;;;5009151;28;20442;-76
2022/08/26 10:22:03;;;;;;;18.35;4.30;;;;;;;;;;5027410;28;20434;-78
2022/08/26 10:24:38;;;;;;;18.75;3.85;;;;;;;;;;5028625;28;20052;-85
2022/08/26 10:27:07;;;;;;;18.80;4.20;;;;;;;;;;5027558;28;20148;-88
2022/08/26 10:29:42;;;;;;;18.77;3.88;;;;;;;;;;5028261;28;20109;-86
2022/08/26 10:32:12;;;;;;;15.77;3.70;;;;;;;;;;5028078;28;20092;-86
2022/08/26 10:34:39;;;;;;;19.00;4.22;;;;;;;;;;5027343;28;20052;-78
2022/08/26 10:37:17;;;;;;;17.13;3.67;;;;;;;;;;5027191;28;20120;-83
2022/08/26 10:39:52;;;;;;;14.87;3.47;;;;;;;;;;5027055;28;20402;-82
2022/08/26 10:42:23;;;;;;;13.55;3.40;;;;;;;;;;5027594;28;20041;-82
2022/08/26 10:44:50;;;;;;;22.63;3.78;;;;;;;;;;5027785;28;20114;-91
2022/08/26 10:47:23;;;;;;;16.30;4.80;;;;;;;;;;5028251;28;20477;-87
2022/08/26 10:49:50;;;;;;;19.70;4.03;;;;;;;;;;5027258;28;20061;-83
2022/08/26 10:52:34;;;;;;;15.25;3.80;;;;;;;;;;5027320;28;20062;-83
2022/08/26 10:55:16;;;;;;;15.60;3.65;;;;;;;;;;5027769;28;20350;-92
2022/08/26 10:58:02;;;;;;;16.65;4.63;;;;;;;;;;5010131;28;20045;-82
2022/08/26 11:03:23;;;;;;;15.45;3.92;;;;;;;;;;5027257;28;20397;-86
2022/08/26 11:06:08;;;;;;;13.50;3.97;;;;;;;;;;5028216;28;20373;-91
2022/08/26 11:08:34;;;;;;;17.70;4.65;;;;;;;;;;5011095;28;20049;-91
2022/08/26 11:11:01;;;;;;;;;;;;;;;;;;5030688;28;20161;-87
2022/08/26 11:13:49;;;;;;;15.60;4.20;;;;;;;;;;5029166;28;20095;-87
2022/08/26 11:16:31;;;;;;;17.30;4.40;;;;;;;;;;5028395;28;20050;-86
2022/08/26 11:18:57;;;;;;;15.43;4.32;;;;;;;;;;5012226;28;20151;-83
2022/08/26 11:21:23;;;;;;;;;;;;;;;;;;5031470;28;20448;-90
2022/08/26 11:23:49;;;;;;;15.38;3.55;;;;;;;;;;5031161;28;19921;-84
2022/08/26 11:26:15;;;;;;;;;;;;;;;;;;5013809;28;20054;-79
2022/08/26 11:28:43;;;;;;;16.17;4.03;;;;;;;;;;5012612;28;19943;-84
2022/08/26 11:31:18;;;;;;;16.73;4.20;;;;;;;;;;5030814;28;20405;-78
2022/08/26 11:33:56;;;;;;;15.55;3.63;;;;;;;;;;5030560;28;20122;-83
2022/08/26 11:36:39;;;;;;;14.77;3.80;;;;;;;;;;5030840;28;20052;-84
2022/08/26 11:39:19;;;;;;;14.40;4.05;;;;;;;;;;5013498;28;20070;-84
2022/08/26 11:41:47;;;;;;;16.27;4.10;;;;;;;;;;5013460;28;20488;-82
2022/08/26 11:44:21;;;;;;;16.80;3.95;;;;;;;;;;5013626;28;20067;-81
2022/08/26 11:47:13;;;;;;;21.63;4.50;;;;;;;;;;5030933;28;20058;-88
2022/08/26 11:49:40;;;;;;;14.90;3.72;;;;;;;;;;5025872;28;20405;-86
2022/08/26 11:52:19;;;;;;;14.15;3.63;;;;;;;;;;5014616;28;20414;-84
2022/08/26 11:55:04;;;;;;;13.82;3.88;;;;;;;;;;5014889;28;20201;-87
2022/08/26 11:57:32;;;;;;;16.15;4.22;;;;;;;;;;5032158;28;20053;-83
2022/08/26 12:00:00;;;;;;;16.38;4.13;;;;;;;;;;5030060;28;20192;-93
2022/08/26 12:02:26;;;;;;;20.08;4.68;;;;;;;;;;5030261;28;20057;-92
2022/08/26 12:04:53;;;;;;;17.17;4.68;;;;;;;;;;5029969;28;20184;-85
2022/08/26 12:07:27;;;;;;;14.63;3.63;;;;;;;;;;5013471;28;20124;-83
2022/08/26 12:10:01;;;;;;;13.52;3.10;;;;;;;;;;5013642;28;20056;-80
2022/08/26 12:12:27;;;;;;;15.02;3.97;;;;;;;;;;5033361;28;20045;-83
2022/08/26 12:14:53;;;;;;;;;;;;;;;;;;5033454;28;20465;-83
2022/08/26 12:17:26;;;;;;;16.48;3.40;;;;;;;;;;5028954;28;19921;-81
2022/08/26 12:19:52;;;;;;;16.90;4.22;;;;;;;;;;5030150;28;20405;-82
2022/08/26 12:22:18;;;;;;;;;;;;;;;;;;5032134;28;20049;-83
2022/08/26 12:24:47;;;;;;;20.05;4.63;;;;;;;;;;5013016;28;20016;-82
2022/08/26 12:27:16;;;;;;;20.17;3.72;;;;;;;;;;5030756;28;20064;-83
2022/08/26 12:29:42;;;;;;;20.35;3.70;;;;;;;;;;5029521;28;20053;-81
2022/08/26 12:32:12;;;;;;;17.45;3.50;;;;;;;;;;5030162;28;20102;-81
2022/08/26 12:34:38;;;;;;;15.60;3.10;;;;;;;;;;5031561;28;20060;-83
2022/08/26 12:37:04;;;;;;;12.68;2.97;;;;;;;;;;5029916;28;20080;-81
2022/08/26 12:39:32;;;;;;;;;;;;;;;;;;5012524;28;20041;-85
2022/08/26 12:41:58;;;;;;;;;;;;;;;;;;5030699;28;20011;-85
2022/08/26 12:44:43;;;;;;;13.98;3.40;;;;;;;;;;5029719;28;20384;-82
2022/08/26 12:47:12;;;;;;;12.98;2.90;;;;;;;;;;5030937;28;20056;-84
2022/08/26 12:49:39;;;;;;;10.68;2.60;;;;;;;;;;5030613;28;20045;-89
2022/08/26 12:52:06;;;;;;;11.63;2.83;;;;;;;;;;5029821;28;20037;-84
2022/08/26 12:57:25;;;;;;;13.60;2.88;;;;;;;;;;5030560;28;20169;-77
2022/08/26 12:59:51;;;;;;;13.93;3.08;;;;;;;;;;5011774;28;20381;-78
2022/08/26 13:02:17;;;;;;;;;;;;;;;;;;5030197;28;20095;-79
2022/08/26 13:04:44;;;;;;;12.75;3.45;;;;;;;;;;5030052;28;19925;-90
2022/08/26 13:07:25;;;;;;;17.38;4.82;;;;;;;;;;5029857;28;20343;-83
2022/08/26 13:09:51;;;;;;;17.05;4.97;;;;;;;;;;5029715;28;20072;-83
2022/08/26 13:12:29;;;;;;;18.13;4.95;;;;;;;;;;5029999;28;20472;-82
2022/08/26 13:14:57;;;;;;;17.00;4.43;;;;;;;;;;5029805;28;20038;-84
2022/08/26 13:17:24;;;;;;;21.33;5.70;;;;;;;;;;5010663;28;20049;-82
2022/08/26 13:19:50;;;;;;;18.30;4.70;;;;;;;;;;5011560;28;20053;-90
2022/08/26 13:22:23;;;;;;;17.55;4.65;;;;;;;;;;5028755;28;20494;-75
2022/08/26 13:24:50;;;;;;;19.35;5.05;;;;;;;;;;5029479;28;20187;-78
2022/08/26 13:27:19;;;;;;;18.77;4.50;;;;;;;;;;5029139;28;20437;-89
2022/08/26 13:29:45;;;;;;;21.00;4.97;;;;;;;;;;4994899;28;20127;-79
2022/08/26 13:32:12;;;;;;;17.08;5.00;;;;;;;;;;5011954;28;20541;-81
2022/08/26 13:34:38;;;;;;;18.48;4.57;;;;;;;;;;5011985;28;20481;-79
2022/08/26 13:37:06;;;;;;;19.17;5.47;;;;;;;;;;5029268;28;20119;-78
2022/08/26 13:39:32;;;;;;;15.73;4.28;;;;;;;;;;5028124;28;20061;-79
2022/08/26 13:41:59;;;;;;;15.27;4.60;;;;;;;;;;5027410;28;20088;-84
2022/08/26 13:44:25;;;;;;;19.40;4.45;;;;;;;;;;5010996;28;20057;-81
2022/08/26 13:46:51;;;;;;;;;;;;;;;;;;5028964;28;20045;-81
2022/08/26 13:49:17;;;;;;;14.05;3.92;;;;;;;;;;5028420;28;19940;-83
2022/08/26 13:51:43;;;;;;;;;;;;;;;;;;5011012;28;20142;-79
2022/08/26 13:54:09;;;;;;;19.52;5.25;;;;;;;;;;5029348;28;19924;-81
2022/08/26 13:56:36;;;;;;;;;;;;;;;;;;5029743;28;20056;-79
2022/08/26 13:59:02;;;;;;;21.05;5.47;;;;;;;;;;5029523;28;20310;-83
2022/08/26 14:01:29;;;;;;;18.25;4.60;;;;;;;;;;5028444;28;20046;-79
2022/08/26 14:03:55;;;;;;;18.13;4.00;;;;;;;;;;4993813;28;20149;-75
2022/08/26 14:06:21;;;;;;;;;;;;;;;;;;5028261;28;20088;-85
2022/08/26 14:08:48;;;;;;;17.63;4.40;;;;;;;;;;5027855;28;19921;-80
2022/08/26 14:11:14;;;;;;;18.65;4.40;;;;;;;;;;5027572;28;20492;-71
2022/08/26 14:13:40;;;;;;;;;;;;;;;;;;5030916;28;20416;-81
2022/08/26 14:16:14;;;;;;;19.63;4.30;;;;;;;;;;5028649;28;20000;-86
2022/08/26 14:18:42;;;;;;;15.13;3.33;;;;;;;;;;5013810;28;20073;-86
2022/08/26 14:21:11;;;;;;;16.08;3.83;;;;;;;;;;5011811;28;20170;-82
2022/08/26 14:23:37;;;;;;;19.23;3.67;;;;;;;;;;5026853;28;20454;-75
2022/08/26 14:26:06;;;;;;;;;;;;;;;;;;5027694;28;20397;-80
2022/08/26 14:28:33;;;;;;;14.32;3.70;;;;;;;;;;5026710;28;20060;-73
2022/08/26 14:30:59;;;;;;;;;;;;;;;;;;5026666;28;20134;-83
2022/08/26 14:33:26;;;;;;;17.85;4.00;;;;;;;;;;5028407;28;20023;-85
2022/08/26 14:36:26;;;;;;;12.07;3.50;;;;;;;;;;5012200;28;20049;-84
2022/08/26 14:38:38;;;;;;;18.42;4.38;;;;;;;;;;5027775;28;20065;-80
2022/08/26 14:41:04;;;;;;;;;;;;;;;;;;5011565;28;20049;-89
2022/08/26 14:43:30;;;;;;;17.23;3.72;;;;;;;;;;5028076;28;19936;-78
2022/08/26 14:45:57;;;;;;;15.57;3.30;;;;;;;;;;5010439;28;20061;-76
2022/08/26 14:48:23;;;;;;;14.93;3.00;;;;;;;;;;5027828;28;20085;-81
2022/08/26 14:50:49;;;;;;;;;;;;;;;;;;5010497;28;20107;-82
2022/08/26 14:56:00;;;;;;;16.60;3.38;;;;;;;;;;5014322;28;20111;-85
2022/08/26 14:58:26;;;;;;;;;;;;;;;;;;5032888;28;20041;-82